Time;durP1;ratioP1;P1;durP2;ratioP2;P2;SDS_P1;SDS_P2;PMS_P1;PMS_P2;Temp;Humidity;BMP_temperature;BMP_pressure;BME280_temperature;BME280_humidity;BME280_pressure;Samples;Min_cycle;Max_cycle;Signal;HPM_P1;HPM_P2
2021/07/29 00:00:32;;;;;;;5.10;1.92;;;;;;;;;;5034871;28;20198;-84
2021/07/29 00:02:58;;;;;;;2.85;2.17;;;;;;;;;;5037537;28;20216;-84
2021/07/29 00:05:24;;;;;;;2.13;1.67;;;;;;;;;;5043266;28;20209;-85
2021/07/29 00:07:51;;;;;;;3.40;2.30;;;;;;;;;;5041251;28;20204;-84
2021/07/29 00:10:17;;;;;;;5.97;2.00;;;;;;;;;;5028109;28;20231;-84
2021/07/29 00:12:43;;;;;;;2.13;1.60;;;;;;;;;;5044552;28;20193;-86
2021/07/29 00:15:14;;;;;;;3.53;2.10;;;;;;;;;;5037485;28;20198;-85
2021/07/29 00:20:12;;;;;;;2.10;1.90;;;;;;;;;;5043704;28;20190;-84
2021/07/29 00:22:39;;;;;;;4.00;2.20;;;;;;;;;;5042766;28;20184;-85
2021/07/29 00:25:07;;;;;;;2.40;2.10;;;;;;;;;;5027766;28;20198;-85
2021/07/29 00:27:36;;;;;;;2.40;1.95;;;;;;;;;;5044068;28;20220;-84
2021/07/29 00:30:02;;;;;;;2.58;1.90;;;;;;;;;;5042273;28;20190;-85
2021/07/29 00:32:28;;;;;;;3.35;1.90;;;;;;;;;;5042371;28;20182;-85
2021/07/29 00:34:54;;;;;;;1.90;1.80;;;;;;;;;;5040907;28;20218;-86
2021/07/29 00:37:20;;;;;;;3.93;1.80;;;;;;;;;;5027452;28;20448;-83
2021/07/29 00:39:46;;;;;;;2.60;2.07;;;;;;;;;;5045974;28;20431;-84
2021/07/29 00:42:12;;;;;;;3.03;2.50;;;;;;;;;;5043673;28;20428;-84
2021/07/29 00:44:38;;;;;;;3.03;2.40;;;;;;;;;;5044491;28;21033;-84
2021/07/29 00:47:06;;;;;;;5.25;2.30;;;;;;;;;;5042295;28;20505;-84
2021/07/29 00:49:32;;;;;;;4.30;2.40;;;;;;;;;;5026905;28;20193;-83
2021/07/29 00:51:58;;;;;;;5.55;2.03;;;;;;;;;;5043083;28;20182;-84
2021/07/29 00:54:27;;;;;;;3.70;2.53;;;;;;;;;;5035545;28;20197;-84
2021/07/29 00:56:54;;;;;;;4.65;2.70;;;;;;;;;;5040008;28;20213;-84
2021/07/29 00:59:20;;;;;;;2.85;2.15;;;;;;;;;;5047403;28;20193;-84
2021/07/29 01:01:46;;;;;;;2.13;1.85;;;;;;;;;;5048147;28;20196;-83
2021/07/29 01:04:12;;;;;;;2.70;2.50;;;;;;;;;;5029906;28;20237;-84
2021/07/29 01:06:38;;;;;;;4.47;2.35;;;;;;;;;;5032606;28;20167;-84
2021/07/29 01:09:09;;;;;;;3.47;2.47;;;;;;;;;;5044092;28;20547;-84
2021/07/29 01:11:44;;;;;;;3.92;2.33;;;;;;;;;;5042376;28;20205;-85
2021/07/29 01:14:11;;;;;;;5.00;2.33;;;;;;;;;;5035519;28;20208;-84
2021/07/29 01:16:37;;;;;;;2.50;2.30;;;;;;;;;;5045830;28;20182;-82
2021/07/29 01:19:04;;;;;;;2.80;2.50;;;;;;;;;;5040501;28;20385;-84
2021/07/29 01:21:30;;;;;;;2.38;2.17;;;;;;;;;;5036634;28;20190;-84
2021/07/29 01:23:56;;;;;;;3.65;2.35;;;;;;;;;;5041606;28;20209;-80
2021/07/29 01:26:22;;;;;;;2.75;2.25;;;;;;;;;;5048436;28;20189;-84
2021/07/29 01:28:48;;;;;;;3.47;2.50;;;;;;;;;;5046157;28;20254;-84
2021/07/29 01:31:15;;;;;;;2.78;2.55;;;;;;;;;;5029933;28;20622;-83
2021/07/29 01:33:41;;;;;;;7.90;3.10;;;;;;;;;;5041199;28;20197;-84
2021/07/29 01:36:07;;;;;;;2.90;2.30;;;;;;;;;;5047929;28;20316;-84
2021/07/29 01:38:33;;;;;;;2.55;2.35;;;;;;;;;;5046673;28;20176;-84
2021/07/29 01:41:01;;;;;;;3.75;2.65;;;;;;;;;;5041905;28;20178;-84
2021/07/29 01:43:27;;;;;;;3.40;2.70;;;;;;;;;;5043185;28;20166;-83
2021/07/29 01:45:53;;;;;;;3.28;2.58;;;;;;;;;;5040273;28;20213;-84
2021/07/29 01:48:19;;;;;;;4.87;2.63;;;;;;;;;;5048199;28;20186;-83
2021/07/29 01:50:46;;;;;;;3.87;2.40;;;;;;;;;;5048279;28;20440;-84
2021/07/29 01:53:12;;;;;;;3.63;2.50;;;;;;;;;;5045138;28;20436;-85
2021/07/29 01:55:42;;;;;;;3.63;2.65;;;;;;;;;;5044933;28;20200;-85
2021/07/29 01:58:08;;;;;;;3.25;2.33;;;;;;;;;;5057351;28;20162;-85
2021/07/29 02:00:34;;;;;;;2.83;2.58;;;;;;;;;;5034879;28;20643;-82
2021/07/29 02:03:02;;;;;;;4.50;2.50;;;;;;;;;;5040184;28;20231;-85
2021/07/29 02:05:28;;;;;;;2.92;2.72;;;;;;;;;;5046228;28;20197;-85
2021/07/29 02:07:55;;;;;;;3.00;2.70;;;;;;;;;;5045414;28;20178;-82
2021/07/29 02:10:21;;;;;;;3.72;2.42;;;;;;;;;;5028795;28;20206;-83
2021/07/29 02:12:47;;;;;;;3.30;2.37;;;;;;;;;;5047365;28;20181;-84
2021/07/29 02:15:13;;;;;;;4.97;3.05;;;;;;;;;;5043740;28;20539;-84
2021/07/29 02:17:39;;;;;;;5.40;2.63;;;;;;;;;;5045965;28;21012;-84
2021/07/29 02:20:05;;;;;;;3.80;2.55;;;;;;;;;;5046827;28;20190;-83
2021/07/29 02:22:31;;;;;;;3.75;2.60;;;;;;;;;;5048008;28;20351;-83
2021/07/29 02:24:57;;;;;;;6.18;2.10;;;;;;;;;;5046506;28;20205;-84
2021/07/29 02:27:24;;;;;;;2.53;2.33;;;;;;;;;;5046462;28;20177;-84
2021/07/29 02:29:53;;;;;;;4.35;2.85;;;;;;;;;;5043424;28;20433;-84
2021/07/29 02:32:19;;;;;;;4.55;2.28;;;;;;;;;;5046646;28;20582;-84
2021/07/29 02:34:45;;;;;;;3.30;3.00;;;;;;;;;;5044351;28;20192;-83
2021/07/29 02:37:11;;;;;;;2.72;2.50;;;;;;;;;;5044208;28;20552;-83
2021/07/29 02:39:40;;;;;;;3.40;2.45;;;;;;;;;;5047346;28;20191;-83
2021/07/29 02:42:06;;;;;;;2.65;2.40;;;;;;;;;;5043843;28;20200;-82
2021/07/29 02:44:32;;;;;;;3.47;2.90;;;;;;;;;;5042631;28;20205;-83
2021/07/29 02:46:58;;;;;;;2.60;2.30;;;;;;;;;;5047373;28;20216;-84
2021/07/29 02:49:24;;;;;;;2.57;2.33;;;;;;;;;;5043666;28;20451;-84
2021/07/29 02:51:50;;;;;;;6.23;3.10;;;;;;;;;;5043441;28;20420;-83
2021/07/29 02:54:16;;;;;;;4.65;2.67;;;;;;;;;;5056174;28;20437;-85
2021/07/29 02:56:43;;;;;;;2.83;2.50;;;;;;;;;;5034945;28;20187;-84
2021/07/29 02:59:09;;;;;;;3.65;2.78;;;;;;;;;;5031647;28;20241;-84
2021/07/29 03:01:35;;;;;;;3.13;2.70;;;;;;;;;;5029979;28;20189;-84
2021/07/29 03:04:01;;;;;;;3.40;2.65;;;;;;;;;;5044017;28;20465;-84
2021/07/29 03:06:27;;;;;;;5.78;3.20;;;;;;;;;;5044483;28;20211;-84
2021/07/29 03:08:54;;;;;;;3.42;2.83;;;;;;;;;;5038716;28;20196;-84
2021/07/29 03:11:20;;;;;;;3.78;2.88;;;;;;;;;;5033782;28;20174;-84
2021/07/29 03:13:46;;;;;;;4.85;2.95;;;;;;;;;;5027443;28;20249;-84
2021/07/29 03:16:12;;;;;;;5.07;2.70;;;;;;;;;;5027457;28;20706;-83
2021/07/29 03:18:38;;;;;;;3.00;2.75;;;;;;;;;;5033476;28;20286;-84
2021/07/29 03:21:07;;;;;;;5.95;3.13;;;;;;;;;;5042109;28;20183;-84
2021/07/29 03:23:34;;;;;;;2.08;1.88;;;;;;;;;;5041549;28;20184;-84
2021/07/29 03:26:00;;;;;;;3.33;2.50;;;;;;;;;;5032716;28;20212;-84
2021/07/29 03:28:26;;;;;;;3.27;2.37;;;;;;;;;;5042888;28;20196;-83
2021/07/29 03:30:55;;;;;;;4.10;3.00;;;;;;;;;;5046131;28;20507;-82
2021/07/29 03:33:21;;;;;;;5.55;2.38;;;;;;;;;;5043058;28;20439;-85
2021/07/29 03:35:48;;;;;;;3.33;2.45;;;;;;;;;;5041260;28;20204;-83
2021/07/29 03:38:14;;;;;;;3.15;2.85;;;;;;;;;;5034288;28;20189;-83
2021/07/29 03:40:40;;;;;;;4.43;2.20;;;;;;;;;;5046218;28;20204;-83
2021/07/29 03:43:07;;;;;;;3.65;2.05;;;;;;;;;;5043287;28;20177;-83
2021/07/29 03:45:34;;;;;;;3.60;2.45;;;;;;;;;;5043731;28;20247;-83
2021/07/29 03:48:00;;;;;;;3.00;2.47;;;;;;;;;;5039628;28;20213;-84
2021/07/29 03:50:29;;;;;;;3.15;2.65;;;;;;;;;;5033358;28;20182;-82
2021/07/29 03:52:55;;;;;;;4.22;2.70;;;;;;;;;;5032573;28;20192;-83
2021/07/29 03:55:21;;;;;;;2.50;2.27;;;;;;;;;;5026417;28;20458;-84
2021/07/29 03:57:47;;;;;;;3.77;2.90;;;;;;;;;;5029195;28;20470;-84
2021/07/29 04:00:14;;;;;;;3.05;2.67;;;;;;;;;;5034576;28;20449;-83
2021/07/29 04:02:40;;;;;;;2.65;2.42;;;;;;;;;;5036709;28;20181;-81
2021/07/29 04:05:06;;;;;;;4.18;2.70;;;;;;;;;;5043786;28;20247;-83
2021/07/29 04:07:33;;;;;;;3.38;2.65;;;;;;;;;;5028215;28;20222;-84
2021/07/29 04:09:59;;;;;;;4.32;2.92;;;;;;;;;;5027895;28;20552;-85
2021/07/29 04:12:25;;;;;;;3.95;2.78;;;;;;;;;;5032233;28;20214;-84
2021/07/29 04:14:51;;;;;;;3.00;2.78;;;;;;;;;;5033671;28;20185;-84
2021/07/29 04:17:17;;;;;;;3.75;2.65;;;;;;;;;;5033118;28;20221;-84
2021/07/29 04:19:43;;;;;;;5.57;2.22;;;;;;;;;;5042084;28;20274;-82
2021/07/29 04:22:09;;;;;;;4.50;2.83;;;;;;;;;;5026847;28;20206;-83
2021/07/29 04:24:35;;;;;;;4.35;2.75;;;;;;;;;;5031830;28;20213;-83
2021/07/29 04:27:02;;;;;;;6.45;2.30;;;;;;;;;;5035207;28;20204;-84
2021/07/29 04:29:31;;;;;;;8.50;3.33;;;;;;;;;;5042866;28;20189;-83
2021/07/29 04:31:58;;;;;;;4.30;2.65;;;;;;;;;;5031498;28;20195;-84
2021/07/29 04:34:24;;;;;;;2.42;2.22;;;;;;;;;;5046392;28;20185;-83
2021/07/29 04:36:50;;;;;;;3.25;2.72;;;;;;;;;;5046404;28;20195;-84
2021/07/29 04:39:16;;;;;;;6.13;2.53;;;;;;;;;;5038010;28;20186;-83
2021/07/29 04:41:42;;;;;;;2.33;2.03;;;;;;;;;;5040580;28;20274;-83
2021/07/29 04:44:09;;;;;;;3.45;1.85;;;;;;;;;;5048864;28;20233;-84
2021/07/29 04:46:39;;;;;;;3.97;2.67;;;;;;;;;;5048977;28;20635;-84
2021/07/29 04:49:06;;;;;;;4.38;2.38;;;;;;;;;;5046538;28;20606;-83
2021/07/29 04:51:33;;;;;;;6.25;2.30;;;;;;;;;;5047510;28;20189;-83
2021/07/29 04:53:59;;;;;;;3.72;2.75;;;;;;;;;;5047593;28;20189;-84
2021/07/29 04:56:25;;;;;;;4.03;2.40;;;;;;;;;;5046914;28;20217;-83
2021/07/29 04:58:51;;;;;;;2.70;2.15;;;;;;;;;;5028369;28;20191;-83
2021/07/29 05:01:17;;;;;;;3.50;2.30;;;;;;;;;;5044098;28;20231;-85
2021/07/29 05:03:44;;;;;;;2.47;2.28;;;;;;;;;;5044100;28;20178;-84
2021/07/29 05:06:10;;;;;;;3.17;2.85;;;;;;;;;;5047306;28;20607;-84
2021/07/29 05:08:35;;;;;;;4.07;2.37;;;;;;;;;;5045887;28;20184;-84
2021/07/29 05:11:05;;;;;;;6.20;1.95;;;;;;;;;;5045085;28;20474;-84
2021/07/29 05:13:31;;;;;;;4.00;2.83;;;;;;;;;;5030759;28;20653;-84
2021/07/29 05:15:57;;;;;;;3.95;2.38;;;;;;;;;;5033588;28;20205;-84
2021/07/29 05:18:23;;;;;;;3.33;2.10;;;;;;;;;;5035973;28;20234;-82
2021/07/29 05:20:49;;;;;;;3.70;2.70;;;;;;;;;;5041218;28;20295;-84
2021/07/29 05:23:16;;;;;;;4.13;3.28;;;;;;;;;;5045771;28;20428;-82
2021/07/29 05:25:42;;;;;;;5.88;2.65;;;;;;;;;;5045904;28;20211;-84
2021/07/29 05:28:08;;;;;;;6.23;2.70;;;;;;;;;;5057593;28;20174;-84
2021/07/29 05:30:37;;;;;;;2.47;2.28;;;;;;;;;;5045798;28;20535;-84
2021/07/29 05:33:05;;;;;;;5.20;2.70;;;;;;;;;;5044972;28;20182;-85
2021/07/29 05:35:31;;;;;;;3.55;2.10;;;;;;;;;;5047220;28;20204;-84
2021/07/29 05:37:58;;;;;;;3.58;2.40;;;;;;;;;;5044464;28;20212;-84
2021/07/29 05:40:24;;;;;;;6.20;2.55;;;;;;;;;;5029663;28;20178;-83
2021/07/29 05:42:50;;;;;;;3.38;2.50;;;;;;;;;;5033570;28;20276;-84
2021/07/29 05:45:16;;;;;;;2.97;2.50;;;;;;;;;;5040325;28;20202;-85
2021/07/29 05:47:43;;;;;;;3.63;2.10;;;;;;;;;;5040469;28;20861;-84
2021/07/29 05:50:09;;;;;;;3.45;1.95;;;;;;;;;;5046773;28;20178;-84
2021/07/29 05:52:35;;;;;;;4.15;2.05;;;;;;;;;;5029763;28;20193;-82
2021/07/29 05:55:01;;;;;;;4.80;2.70;;;;;;;;;;5045025;28;20272;-83
2021/07/29 05:57:27;;;;;;;3.10;2.20;;;;;;;;;;5046414;28;20432;-84
2021/07/29 05:59:53;;;;;;;3.33;2.20;;;;;;;;;;5044947;28;20436;-84
2021/07/29 06:02:19;;;;;;;2.72;2.40;;;;;;;;;;5045009;28;20463;-83
2021/07/29 06:04:45;;;;;;;3.70;2.60;;;;;;;;;;5045194;28;20210;-83
2021/07/29 06:07:11;;;;;;;4.00;2.47;;;;;;;;;;5044320;28;20380;-84
2021/07/29 06:09:37;;;;;;;6.77;2.60;;;;;;;;;;5045217;28;20519;-84
2021/07/29 06:12:03;;;;;;;3.20;2.90;;;;;;;;;;5043753;28;20439;-80
2021/07/29 06:14:29;;;;;;;2.55;2.35;;;;;;;;;;5043741;28;20440;-85
2021/07/29 06:16:55;;;;;;;3.83;3.25;;;;;;;;;;5026928;28;20266;-85
2021/07/29 06:19:31;;;;;;;3.42;2.60;;;;;;;;;;5042865;28;20174;-82
2021/07/29 06:21:58;;;;;;;2.85;2.30;;;;;;;;;;5038118;28;20339;-83
2021/07/29 06:24:24;;;;;;;3.75;2.83;;;;;;;;;;5045706;28;20220;-84
2021/07/29 06:26:50;;;;;;;2.85;2.60;;;;;;;;;;5046120;28;20185;-83
2021/07/29 06:29:17;;;;;;;5.03;2.65;;;;;;;;;;5046853;28;20188;-84
2021/07/29 06:31:43;;;;;;;3.35;3.00;;;;;;;;;;5044635;28;20184;-84
2021/07/29 06:34:09;;;;;;;2.40;2.20;;;;;;;;;;5040336;28;20165;-85
2021/07/29 06:36:35;;;;;;;6.60;2.37;;;;;;;;;;5033365;28;20449;-85
2021/07/29 06:39:01;;;;;;;3.87;2.57;;;;;;;;;;5040149;28;20441;-85
2021/07/29 06:41:27;;;;;;;2.47;2.27;;;;;;;;;;5046012;28;20436;-84
2021/07/29 06:43:53;;;;;;;4.03;2.92;;;;;;;;;;5042342;28;20441;-84
2021/07/29 06:46:19;;;;;;;4.45;2.50;;;;;;;;;;5027478;28;20178;-83
2021/07/29 06:48:45;;;;;;;3.25;2.35;;;;;;;;;;5033550;28;20175;-85
2021/07/29 06:51:11;;;;;;;3.83;2.70;;;;;;;;;;5034882;28;20252;-85
2021/07/29 06:53:37;;;;;;;5.63;2.33;;;;;;;;;;5035634;28;20436;-84
2021/07/29 06:56:04;;;;;;;5.50;3.22;;;;;;;;;;5032198;28;20190;-83
2021/07/29 06:58:30;;;;;;;3.92;2.90;;;;;;;;;;5028266;28;20179;-83
2021/07/29 07:00:56;;;;;;;2.17;1.93;;;;;;;;;;5031128;28;20668;-85
2021/07/29 07:03:23;;;;;;;3.03;2.67;;;;;;;;;;5044827;28;20487;-84
2021/07/29 07:05:49;;;;;;;5.97;2.60;;;;;;;;;;5039000;28;20710;-84
2021/07/29 07:08:15;;;;;;;5.45;3.08;;;;;;;;;;5032937;28;20213;-84
2021/07/29 07:10:41;;;;;;;3.38;2.45;;;;;;;;;;5043937;28;20173;-84
2021/07/29 07:13:07;;;;;;;3.15;2.17;;;;;;;;;;5029140;28;20181;-84
2021/07/29 07:15:33;;;;;;;5.75;3.15;;;;;;;;;;5044873;28;20248;-84
2021/07/29 07:18:00;;;;;;;5.45;2.42;;;;;;;;;;5044937;28;20248;-83
2021/07/29 07:20:26;;;;;;;4.47;2.33;;;;;;;;;;5042904;28;20209;-84
2021/07/29 07:22:52;;;;;;;5.28;2.25;;;;;;;;;;5045481;28;20234;-85
2021/07/29 07:25:19;;;;;;;5.38;2.70;;;;;;;;;;5044083;28;20204;-85
2021/07/29 07:27:45;;;;;;;6.50;3.45;;;;;;;;;;5061118;28;20170;-85
2021/07/29 07:30:11;;;;;;;3.50;2.70;;;;;;;;;;5042587;28;20194;-83
2021/07/29 07:32:37;;;;;;;4.22;2.25;;;;;;;;;;5043628;28;20182;-84
2021/07/29 07:35:04;;;;;;;2.60;2.05;;;;;;;;;;5043736;28;20198;-85
2021/07/29 07:37:30;;;;;;;3.22;2.92;;;;;;;;;;5027213;28;20170;-85
2021/07/29 07:39:56;;;;;;;2.80;2.60;;;;;;;;;;5046757;28;20209;-85
2021/07/29 07:42:22;;;;;;;3.63;2.60;;;;;;;;;;5044430;28;20431;-82
2021/07/29 07:44:48;;;;;;;3.08;2.22;;;;;;;;;;5042968;28;20484;-84
2021/07/29 07:47:14;;;;;;;2.85;2.15;;;;;;;;;;5045676;28;20185;-85
2021/07/29 07:49:40;;;;;;;8.33;3.00;;;;;;;;;;5045694;28;20185;-84
2021/07/29 07:52:09;;;;;;;3.20;2.42;;;;;;;;;;5043005;28;20862;-83
2021/07/29 07:54:36;;;;;;;7.05;2.40;;;;;;;;;;5033699;28;20192;-83
2021/07/29 07:57:03;;;;;;;3.65;2.15;;;;;;;;;;5032856;28;20182;-84
2021/07/29 07:59:29;;;;;;;6.72;2.35;;;;;;;;;;5034336;28;20196;-84
2021/07/29 08:01:55;;;;;;;6.80;1.90;;;;;;;;;;5042179;28;20182;-85
2021/07/29 08:04:21;;;;;;;3.93;1.80;;;;;;;;;;5025917;28;20285;-83
2021/07/29 08:06:47;;;;;;;7.20;1.80;;;;;;;;;;5031449;28;20400;-85
2021/07/29 08:09:13;;;;;;;4.27;2.00;;;;;;;;;;5046396;28;20459;-85
2021/07/29 08:11:39;;;;;;;3.00;1.50;;;;;;;;;;5043757;28;20437;-85
2021/07/29 08:14:05;;;;;;;4.03;1.60;;;;;;;;;;5033529;28;20411;-85
2021/07/29 08:16:31;;;;;;;1.87;1.63;;;;;;;;;;5032332;28;20429;-85
2021/07/29 08:18:57;;;;;;;4.00;2.45;;;;;;;;;;5047607;28;20399;-82
2021/07/29 08:21:23;;;;;;;8.43;2.15;;;;;;;;;;5048243;28;20189;-85
2021/07/29 08:23:50;;;;;;;8.70;1.90;;;;;;;;;;5048078;28;20364;-85
2021/07/29 08:26:16;;;;;;;2.33;1.83;;;;;;;;;;5047599;28;20178;-84
2021/07/29 08:28:42;;;;;;;4.10;1.95;;;;;;;;;;5048708;28;20185;-85
2021/07/29 08:31:12;;;;;;;3.60;1.85;;;;;;;;;;5041933;28;20167;-85
2021/07/29 08:33:39;;;;;;;3.05;1.88;;;;;;;;;;5059206;28;20178;-84
2021/07/29 08:36:05;;;;;;;3.35;1.92;;;;;;;;;;5039932;28;20197;-84
2021/07/29 08:38:31;;;;;;;3.25;1.60;;;;;;;;;;5036937;28;20209;-84
2021/07/29 08:40:58;;;;;;;3.47;1.88;;;;;;;;;;5034518;28;20219;-84
2021/07/29 08:43:27;;;;;;;4.70;2.40;;;;;;;;;;5046268;28;20213;-83
2021/07/29 08:45:53;;;;;;;6.03;2.03;;;;;;;;;;5038807;28;20190;-85
2021/07/29 08:48:27;;;;;;;6.28;2.10;;;;;;;;;;5048545;28;20179;-84
2021/07/29 08:50:54;;;;;;;3.25;2.75;;;;;;;;;;5041824;28;20240;-83
2021/07/29 08:53:20;;;;;;;2.28;2.08;;;;;;;;;;5035784;28;20190;-85
2021/07/29 08:55:50;;;;;;;4.40;2.15;;;;;;;;;;5046387;28;20667;-84
2021/07/29 08:58:16;;;;;;;2.03;1.73;;;;;;;;;;5029235;28;20260;-82
2021/07/29 09:01:04;;;;;;;3.47;1.73;;;;;;;;;;5048549;28;20186;-82
2021/07/29 09:03:30;;;;;;;3.33;2.10;;;;;;;;;;5080728;28;20191;-86
2021/07/29 09:06:00;;;;;;;1.95;1.75;;;;;;;;;;5046899;28;20313;-81
2021/07/29 09:08:27;;;;;;;3.00;1.83;;;;;;;;;;5046733;28;20576;-83
2021/07/29 09:10:53;;;;;;;5.68;1.60;;;;;;;;;;5046430;28;20247;-84
2021/07/29 09:13:19;;;;;;;2.23;1.60;;;;;;;;;;5029232;28;20179;-84
2021/07/29 09:15:47;;;;;;;1.90;1.75;;;;;;;;;;5035043;28;20476;-83
2021/07/29 09:18:19;;;;;;;2.88;1.65;;;;;;;;;;5044882;28;20225;-84
2021/07/29 09:20:45;;;;;;;2.88;1.60;;;;;;;;;;5046340;28;20605;-84
2021/07/29 09:23:15;;;;;;;2.72;1.83;;;;;;;;;;5046153;28;20188;-83
2021/07/29 09:25:42;;;;;;;4.75;1.95;;;;;;;;;;5045313;28;20241;-84
2021/07/29 09:28:08;;;;;;;3.08;1.98;;;;;;;;;;5057490;28;20173;-84
2021/07/29 09:30:35;;;;;;;4.63;2.08;;;;;;;;;;5045903;28;20191;-84
2021/07/29 09:33:05;;;;;;;2.28;1.40;;;;;;;;;;5045729;28;20183;-84
2021/07/29 09:35:39;;;;;;;1.73;1.30;;;;;;;;;;5045842;28;20271;-84
2021/07/29 09:38:10;;;;;;;3.45;1.60;;;;;;;;;;5046428;28;20630;-84
2021/07/29 09:41:02;;;;;;;3.05;1.90;;;;;;;;;;5046676;28;20194;-85
2021/07/29 09:43:29;;;;;;;2.00;1.40;;;;;;;;;;5057526;28;20189;-85
2021/07/29 09:45:56;;;;;;;2.63;1.83;;;;;;;;;;5047417;28;20194;-83
2021/07/29 09:48:23;;;;;;;2.47;1.73;;;;;;;;;;5046951;28;20494;-84
2021/07/29 09:50:50;;;;;;;1.80;1.27;;;;;;;;;;5046585;28;20437;-85
2021/07/29 09:53:16;;;;;;;2.20;2.10;;;;;;;;;;5047471;28;20403;-84
2021/07/29 09:55:42;;;;;;;1.67;1.30;;;;;;;;;;5046660;28;20475;-83
2021/07/29 09:58:08;;;;;;;2.70;2.00;;;;;;;;;;5044806;28;20428;-84
2021/07/29 10:00:35;;;;;;;2.50;1.30;;;;;;;;;;5044301;28;20448;-84
2021/07/29 10:03:03;;;;;;;2.60;1.43;;;;;;;;;;5040161;28;20960;-83
2021/07/29 10:05:40;;;;;;;3.13;1.67;;;;;;;;;;5036468;28;20600;-84
2021/07/29 10:08:10;;;;;;;3.00;1.60;;;;;;;;;;5045435;28;20398;-83
2021/07/29 10:10:36;;;;;;;2.57;2.00;;;;;;;;;;5028084;28;20506;-82
2021/07/29 10:13:02;;;;;;;2.10;1.80;;;;;;;;;;5045694;28;20412;-83
2021/07/29 10:15:46;;;;;;;2.03;1.60;;;;;;;;;;5034218;28;20423;-85
2021/07/29 10:18:13;;;;;;;2.20;1.50;;;;;;;;;;5040809;28;20454;-82
2021/07/29 10:20:41;;;;;;;4.93;1.97;;;;;;;;;;5042399;28;20484;-83
2021/07/29 10:23:12;;;;;;;3.07;1.27;;;;;;;;;;5034103;28;20464;-84
2021/07/29 10:26:03;;;;;;;2.83;2.50;;;;;;;;;;5044969;28;20471;-84
2021/07/29 10:28:39;;;;;;;3.80;1.90;;;;;;;;;;5042719;28;20409;-84
2021/07/29 10:31:06;;;;;;;2.50;2.00;;;;;;;;;;5028068;28;20439;-85
2021/07/29 10:33:32;;;;;;;3.13;1.80;;;;;;;;;;5034452;28;20429;-86
2021/07/29 10:35:59;;;;;;;2.23;1.50;;;;;;;;;;5040633;28;20423;-85
2021/07/29 10:38:40;;;;;;;5.90;2.13;;;;;;;;;;5046865;28;20410;-84
2021/07/29 10:41:09;;;;;;;3.70;1.63;;;;;;;;;;5046333;28;20440;-80
2021/07/29 10:43:39;;;;;;;2.37;1.60;;;;;;;;;;5044805;28;20899;-84
2021/07/29 10:46:05;;;;;;;2.60;1.97;;;;;;;;;;5044264;28;20471;-84
2021/07/29 10:49:12;;;;;;;2.17;1.50;;;;;;;;;;5046473;28;20433;-84
2021/07/29 10:51:58;;;;;;;2.80;1.70;;;;;;;;;;5035805;28;20398;-84
2021/07/29 10:54:25;;;;;;;3.63;1.40;;;;;;;;;;5033369;28;20505;-83
2021/07/29 10:56:51;;;;;;;3.80;1.60;;;;;;;;;;5035483;28;20476;-84
2021/07/29 10:59:18;;;;;;;2.33;1.53;;;;;;;;;;5033186;28;20419;-84
2021/07/29 11:01:48;;;;;;;4.33;1.70;;;;;;;;;;5045655;28;20441;-83
2021/07/29 11:04:14;;;;;;;1.80;1.70;;;;;;;;;;5044339;28;20426;-83
2021/07/29 11:06:43;;;;;;;6.90;1.60;;;;;;;;;;5039513;28;20406;-83
2021/07/29 11:09:13;;;;;;;2.37;1.40;;;;;;;;;;5037491;28;20434;-83
2021/07/29 11:11:40;;;;;;;2.90;1.77;;;;;;;;;;5032348;28;20412;-84
2021/07/29 11:14:07;;;;;;;2.70;1.60;;;;;;;;;;5033470;28;20399;-83
2021/07/29 11:16:33;;;;;;;2.30;1.50;;;;;;;;;;5045305;28;20508;-84
2021/07/29 11:19:00;;;;;;;2.87;1.60;;;;;;;;;;5038362;28;20903;-84
2021/07/29 11:21:26;;;;;;;1.90;1.40;;;;;;;;;;5046624;28;20421;-84
2021/07/29 11:23:52;;;;;;;3.27;1.60;;;;;;;;;;5043719;28;20426;-84
2021/07/29 11:26:18;;;;;;;2.07;1.40;;;;;;;;;;5045294;28;20436;-83
2021/07/29 11:28:45;;;;;;;2.50;1.90;;;;;;;;;;5043234;28;20434;-84
2021/07/29 11:31:15;;;;;;;2.30;1.50;;;;;;;;;;5027235;28;20400;-84
2021/07/29 11:33:41;;;;;;;3.63;1.57;;;;;;;;;;5044645;28;20474;-84
2021/07/29 11:36:08;;;;;;;1.63;1.53;;;;;;;;;;5038681;28;20427;-83
2021/07/29 11:38:35;;;;;;;3.73;1.10;;;;;;;;;;5035174;28;21024;-84
2021/07/29 11:41:01;;;;;;;2.83;1.90;;;;;;;;;;5043902;28;20463;-84
2021/07/29 11:43:28;;;;;;;3.17;2.60;;;;;;;;;;5027794;28;20418;-85
2021/07/29 11:46:08;;;;;;;2.87;1.87;;;;;;;;;;5043957;28;20461;-83
2021/07/29 11:48:34;;;;;;;2.67;1.67;;;;;;;;;;5043619;28;20458;-84
2021/07/29 11:51:00;;;;;;;2.80;1.40;;;;;;;;;;5044482;28;20434;-84
2021/07/29 11:53:38;;;;;;;1.43;1.30;;;;;;;;;;5044914;28;20407;-85
2021/07/29 11:56:04;;;;;;;3.23;1.40;;;;;;;;;;5044034;28;20414;-84
2021/07/29 11:58:30;;;;;;;1.77;1.60;;;;;;;;;;5042520;28;20440;-83
2021/07/29 12:00:56;;;;;;;2.10;1.60;;;;;;;;;;5030415;28;20392;-84
2021/07/29 12:03:27;;;;;;;5.53;1.80;;;;;;;;;;5041317;28;20426;-83
2021/07/29 12:05:53;;;;;;;1.90;1.50;;;;;;;;;;5044693;28;20439;-83
2021/07/29 12:08:19;;;;;;;5.47;1.57;;;;;;;;;;5041816;28;20491;-82
2021/07/29 12:10:46;;;;;;;4.07;1.73;;;;;;;;;;5028486;28;20410;-83
2021/07/29 12:13:14;;;;;;;2.23;1.30;;;;;;;;;;5027884;28;20421;-83
2021/07/29 12:15:40;;;;;;;2.10;1.50;;;;;;;;;;5044709;28;20849;-83
2021/07/29 12:18:22;;;;;;;1.60;1.50;;;;;;;;;;5035570;28;20496;-84
2021/07/29 12:20:49;;;;;;;1.70;1.47;;;;;;;;;;5038674;28;20508;-82
2021/07/29 12:23:16;;;;;;;2.63;1.87;;;;;;;;;;5044834;28;20793;-83
2021/07/29 12:25:42;;;;;;;1.87;1.33;;;;;;;;;;5043958;28;20502;-83
2021/07/29 12:28:08;;;;;;;2.60;1.50;;;;;;;;;;5042121;28;20390;-83
2021/07/29 12:30:41;;;;;;;2.40;1.67;;;;;;;;;;5033529;28;20511;-84
2021/07/29 12:33:11;;;;;;;3.97;1.47;;;;;;;;;;5041212;28;20502;-84
2021/07/29 12:35:42;;;;;;;2.30;1.63;;;;;;;;;;5041837;28;20496;-84
2021/07/29 12:38:09;;;;;;;2.83;1.70;;;;;;;;;;5041445;28;20412;-84
2021/07/29 12:40:35;;;;;;;2.47;1.43;;;;;;;;;;5044131;28;20430;-83
2021/07/29 12:43:37;;;;;;;2.97;1.70;;;;;;;;;;5044408;28;20785;-84
2021/07/29 12:46:04;;;;;;;2.43;1.33;;;;;;;;;;4985757;28;20478;-84
2021/07/29 12:48:31;;;;;;;8.90;1.87;;;;;;;;;;4974029;28;20446;-84
2021/07/29 12:50:58;;;;;;;1.40;1.30;;;;;;;;;;4976519;28;20446;-85
2021/07/29 12:53:24;;;;;;;4.10;1.20;;;;;;;;;;5008995;28;20451;-84
2021/07/29 12:55:51;;;;;;;2.20;1.77;;;;;;;;;;4976306;28;20433;-84
2021/07/29 12:58:18;;;;;;;1.77;1.30;;;;;;;;;;5020848;28;20422;-85
2021/07/29 13:00:45;;;;;;;2.07;1.30;;;;;;;;;;4986614;28;20438;-85
2021/07/29 13:03:32;;;;;;;1.40;1.20;;;;;;;;;;4999468;28;20436;-84
2021/07/29 13:05:59;;;;;;;2.43;1.30;;;;;;;;;;4979144;28;20473;-85
2021/07/29 13:08:27;;;;;;;1.90;1.20;;;;;;;;;;5006415;28;20435;-85
2021/07/29 13:10:53;;;;;;;3.13;1.63;;;;;;;;;;5006692;28;21078;-84
2021/07/29 13:13:24;;;;;;;2.37;1.50;;;;;;;;;;5020866;28;20932;-82
2021/07/29 13:15:50;;;;;;;1.40;1.03;;;;;;;;;;5022281;28;20505;-85
2021/07/29 13:18:16;;;;;;;1.27;1.10;;;;;;;;;;5000979;28;20489;-85
2021/07/29 13:20:42;;;;;;;1.80;1.30;;;;;;;;;;5032964;28;20450;-85
2021/07/29 13:23:08;;;;;;;1.03;1.03;;;;;;;;;;5033008;28;20444;-85
2021/07/29 13:25:34;;;;;;;1.80;1.20;;;;;;;;;;5030240;28;20537;-84
2021/07/29 13:28:00;;;;;;;1.93;1.23;;;;;;;;;;5032032;28;20896;-87
2021/07/29 13:30:26;;;;;;;3.10;1.20;;;;;;;;;;5033725;28;20433;-85
2021/07/29 13:32:52;;;;;;;2.17;1.20;;;;;;;;;;5035002;28;20459;-84
2021/07/29 13:35:18;;;;;;;2.40;1.37;;;;;;;;;;5036694;28;20432;-84
2021/07/29 13:37:44;;;;;;;1.83;1.20;;;;;;;;;;5044709;28;20496;-84
2021/07/29 13:40:10;;;;;;;2.27;1.30;;;;;;;;;;5030402;28;20492;-84
2021/07/29 13:42:36;;;;;;;1.20;1.10;;;;;;;;;;5048396;28;20432;-85
2021/07/29 13:45:23;;;;;;;1.27;1.17;;;;;;;;;;5044617;28;20468;-86
2021/07/29 13:47:49;;;;;;;1.43;1.23;;;;;;;;;;5041896;28;20425;-84
2021/07/29 13:50:16;;;;;;;2.50;1.20;;;;;;;;;;5033778;28;20519;-84
2021/07/29 13:52:42;;;;;;;2.47;1.20;;;;;;;;;;5044865;28;20440;-84
2021/07/29 13:55:08;;;;;;;1.43;1.10;;;;;;;;;;5029804;28;20421;-83
2021/07/29 13:57:35;;;;;;;1.47;1.23;;;;;;;;;;5033840;28;20429;-84
2021/07/29 14:00:01;;;;;;;10.90;2.10;;;;;;;;;;5033431;28;20453;-82
2021/07/29 14:02:30;;;;;;;2.87;1.17;;;;;;;;;;5035182;28;20541;-85
2021/07/29 14:04:57;;;;;;;4.17;1.60;;;;;;;;;;5042860;28;20501;-84
2021/07/29 14:07:23;;;;;;;2.70;1.20;;;;;;;;;;5027511;28;20458;-84
2021/07/29 14:09:49;;;;;;;1.80;1.40;;;;;;;;;;5034833;28;20418;-85
2021/07/29 14:12:15;;;;;;;3.80;1.60;;;;;;;;;;5038503;28;20460;-84
2021/07/29 14:14:41;;;;;;;2.27;1.40;;;;;;;;;;5044253;28;20449;-85
2021/07/29 14:17:23;;;;;;;2.33;1.30;;;;;;;;;;5046120;28;20812;-84
2021/07/29 14:25:06;;;;;;;2.80;1.50;;;;;;;;;;5043949;28;20466;-83
2021/07/29 14:27:32;;;;;;;1.90;1.23;;;;;;;;;;5047929;28;20461;-83
2021/07/29 14:29:58;;;;;;;2.23;1.40;;;;;;;;;;5043252;28;20828;-84
2021/07/29 14:32:25;;;;;;;3.90;1.27;;;;;;;;;;5033770;28;20521;-83
2021/07/29 14:34:51;;;;;;;2.57;1.70;;;;;;;;;;5030761;28;20940;-85
2021/07/29 14:37:17;;;;;;;5.33;2.10;;;;;;;;;;5043340;28;20452;-85
2021/07/29 14:39:43;;;;;;;2.00;1.60;;;;;;;;;;5045757;28;20413;-83
2021/07/29 14:42:09;;;;;;;1.30;1.20;;;;;;;;;;5039738;28;20450;-85
2021/07/29 14:44:37;;;;;;;3.27;1.50;;;;;;;;;;5032436;28;20507;-83
2021/07/29 14:49:48;;;;;;;4.90;1.80;;;;;;;;;;5031185;28;20797;-83
2021/07/29 14:52:16;;;;;;;3.70;1.10;;;;;;;;;;5044209;28;20484;-82
2021/07/29 14:54:43;;;;;;;1.70;1.27;;;;;;;;;;5033562;28;20416;-82